sensor_id;sensor_type;location;lat;lon;timestamp;temperature;humidity
41904;DHT22;27586;51.124;4.182;2023-12-04T00:00:37;3.00;99.90
41904;DHT22;27586;51.124;4.182;2023-12-04T00:03:03;2.90;99.90
41904;DHT22;27586;51.124;4.182;2023-12-04T00:05:29;3.10;99.90
41904;DHT22;27586;51.124;4.182;2023-12-04T00:07:55;3.10;99.90
41904;DHT22;27586;51.124;4.182;2023-12-04T00:10:21;3.20;99.90
41904;DHT22;27586;51.124;4.182;2023-12-04T00:12:47;3.00;99.90
41904;DHT22;27586;51.124;4.182;2023-12-04T00:15:12;3.10;99.90
41904;DHT22;27586;51.124;4.182;2023-12-04T00:17:38;3.20;99.90
41904;DHT22;27586;51.124;4.182;2023-12-04T00:20:08;3.20;99.90
41904;DHT22;27586;51.124;4.182;2023-12-04T00:22:37;3.20;99.90
41904;DHT22;27586;51.124;4.182;2023-12-04T00:25:04;3.20;99.90
41904;DHT22;27586;51.124;4.182;2023-12-04T00:27:30;3.10;99.90
41904;DHT22;27586;51.124;4.182;2023-12-04T00:29:56;3.20;99.90
41904;DHT22;27586;51.124;4.182;2023-12-04T00:32:22;3.20;99.90
41904;DHT22;27586;51.124;4.182;2023-12-04T00:34:47;3.20;99.90
41904;DHT22;27586;51.124;4.182;2023-12-04T00:37:13;3.10;99.90
41904;DHT22;27586;51.124;4.182;2023-12-04T00:39:38;3.10;99.90
41904;DHT22;27586;51.124;4.182;2023-12-04T00:42:04;3.00;99.90
41904;DHT22;27586;51.124;4.182;2023-12-04T00:44:30;3.00;99.90
41904;DHT22;27586;51.124;4.182;2023-12-04T00:46:56;3.00;99.90
41904;DHT22;27586;51.124;4.182;2023-12-04T00:49:21;3.00;99.90
41904;DHT22;27586;51.124;4.182;2023-12-04T00:51:47;3.00;99.90
41904;DHT22;27586;51.124;4.182;2023-12-04T00:54:13;3.00;99.90
41904;DHT22;27586;51.124;4.182;2023-12-04T00:56:39;3.00;99.90
41904;DHT22;27586;51.124;4.182;2023-12-04T00:59:05;3.00;99.90
41904;DHT22;27586;51.124;4.182;2023-12-04T01:01:32;2.90;99.90
41904;DHT22;27586;51.124;4.182;2023-12-04T01:03:58;2.90;99.90
41904;DHT22;27586;51.124;4.182;2023-12-04T01:06:25;2.90;99.90
41904;DHT22;27586;51.124;4.182;2023-12-04T01:08:51;3.00;99.90
41904;DHT22;27586;51.124;4.182;2023-12-04T01:11:17;3.00;99.90
41904;DHT22;27586;51.124;4.182;2023-12-04T01:13:45;3.00;99.90
41904;DHT22;27586;51.124;4.182;2023-12-04T01:16:11;3.00;99.90
41904;DHT22;27586;51.124;4.182;2023-12-04T01:18:36;3.10;99.90
41904;DHT22;27586;51.124;4.182;2023-12-04T01:21:02;3.10;99.90
41904;DHT22;27586;51.124;4.182;2023-12-04T01:23:28;3.10;99.90
41904;DHT22;27586;51.124;4.182;2023-12-04T01:25:53;3.20;99.90
41904;DHT22;27586;51.124;4.182;2023-12-04T01:28:19;3.10;99.90
41904;DHT22;27586;51.124;4.182;2023-12-04T01:30:44;3.10;99.90
41904;DHT22;27586;51.124;4.182;2023-12-04T01:33:10;3.20;99.90
41904;DHT22;27586;51.124;4.182;2023-12-04T01:35:36;3.20;99.90
41904;DHT22;27586;51.124;4.182;2023-12-04T01:38:01;3.10;99.90
41904;DHT22;27586;51.124;4.182;2023-12-04T01:40:27;3.10;99.90
41904;DHT22;27586;51.124;4.182;2023-12-04T01:42:53;3.20;99.90
41904;DHT22;27586;51.124;4.182;2023-12-04T01:45:18;3.10;99.90
41904;DHT22;27586;51.124;4.182;2023-12-04T01:47:45;3.20;99.90
41904;DHT22;27586;51.124;4.182;2023-12-04T01:50:12;3.20;99.90
41904;DHT22;27586;51.124;4.182;2023-12-04T01:52:38;3.20;99.90
41904;DHT22;27586;51.124;4.182;2023-12-04T01:55:05;3.20;99.90
41904;DHT22;27586;51.124;4.182;2023-12-04T01:57:31;3.10;99.90
41904;DHT22;27586;51.124;4.182;2023-12-04T01:59:57;3.20;99.90
41904;DHT22;27586;51.124;4.182;2023-12-04T02:02:23;3.30;99.90
41904;DHT22;27586;51.124;4.182;2023-12-04T02:04:49;3.20;99.90
41904;DHT22;27586;51.124;4.182;2023-12-04T02:07:14;3.20;99.90
41904;DHT22;27586;51.124;4.182;2023-12-04T02:09:40;3.30;99.90
41904;DHT22;27586;51.124;4.182;2023-12-04T02:12:06;3.20;99.90
41904;DHT22;27586;51.124;4.182;2023-12-04T02:14:32;3.30;99.90
41904;DHT22;27586;51.124;4.182;2023-12-04T02:16:58;3.20;99.90
41904;DHT22;27586;51.124;4.182;2023-12-04T02:19:26;3.20;99.90
41904;DHT22;27586;51.124;4.182;2023-12-04T02:21:52;3.30;99.90
41904;DHT22;27586;51.124;4.182;2023-12-04T02:24:17;3.40;99.90
41904;DHT22;27586;51.124;4.182;2023-12-04T02:26:57;3.40;99.90
41904;DHT22;27586;51.124;4.182;2023-12-04T02:29:30;3.30;99.90
41904;DHT22;27586;51.124;4.182;2023-12-04T02:31:57;3.30;99.90
41904;DHT22;27586;51.124;4.182;2023-12-04T02:34:24;3.20;99.90
41904;DHT22;27586;51.124;4.182;2023-12-04T02:36:50;3.30;99.90
41904;DHT22;27586;51.124;4.182;2023-12-04T02:39:17;3.30;99.90
41904;DHT22;27586;51.124;4.182;2023-12-04T02:41:42;3.40;99.90
41904;DHT22;27586;51.124;4.182;2023-12-04T02:44:08;3.40;99.90
41904;DHT22;27586;51.124;4.182;2023-12-04T02:46:34;3.50;99.90
41904;DHT22;27586;51.124;4.182;2023-12-04T02:49:00;3.50;99.90
41904;DHT22;27586;51.124;4.182;2023-12-04T02:51:25;3.40;99.90
41904;DHT22;27586;51.124;4.182;2023-12-04T02:53:52;3.50;99.90
41904;DHT22;27586;51.124;4.182;2023-12-04T02:56:17;3.50;99.90
41904;DHT22;27586;51.124;4.182;2023-12-04T02:58:43;3.50;99.90
41904;DHT22;27586;51.124;4.182;2023-12-04T03:01:08;3.50;99.90
41904;DHT22;27586;51.124;4.182;2023-12-04T03:03:34;3.60;99.90
41904;DHT22;27586;51.124;4.182;2023-12-04T03:06:00;3.50;99.90
41904;DHT22;27586;51.124;4.182;2023-12-04T03:08:25;3.50;99.90
41904;DHT22;27586;51.124;4.182;2023-12-04T03:10:51;3.50;99.90
41904;DHT22;27586;51.124;4.182;2023-12-04T03:13:17;3.60;99.90
41904;DHT22;27586;51.124;4.182;2023-12-04T03:15:42;3.60;99.90
41904;DHT22;27586;51.124;4.182;2023-12-04T03:18:08;3.60;99.90
41904;DHT22;27586;51.124;4.182;2023-12-04T03:20:34;3.60;99.90
41904;DHT22;27586;51.124;4.182;2023-12-04T03:22:59;3.60;99.90
41904;DHT22;27586;51.124;4.182;2023-12-04T03:25:25;3.70;99.90
41904;DHT22;27586;51.124;4.182;2023-12-04T03:27:50;3.70;99.90
41904;DHT22;27586;51.124;4.182;2023-12-04T03:30:16;3.60;99.90
41904;DHT22;27586;51.124;4.182;2023-12-04T03:32:42;3.60;99.90
41904;DHT22;27586;51.124;4.182;2023-12-04T03:35:07;3.60;99.90
41904;DHT22;27586;51.124;4.182;2023-12-04T03:37:33;3.60;99.90
41904;DHT22;27586;51.124;4.182;2023-12-04T03:39:59;3.60;99.90
41904;DHT22;27586;51.124;4.182;2023-12-04T03:42:25;3.60;99.90
41904;DHT22;27586;51.124;4.182;2023-12-04T03:44:50;3.50;99.90
41904;DHT22;27586;51.124;4.182;2023-12-04T03:47:16;3.50;99.90
41904;DHT22;27586;51.124;4.182;2023-12-04T03:49:42;3.50;99.90
41904;DHT22;27586;51.124;4.182;2023-12-04T03:52:07;3.60;99.90
41904;DHT22;27586;51.124;4.182;2023-12-04T03:54:33;3.60;99.90
41904;DHT22;27586;51.124;4.182;2023-12-04T03:56:58;3.70;99.90
41904;DHT22;27586;51.124;4.182;2023-12-04T03:59:24;3.60;99.90
41904;DHT22;27586;51.124;4.182;2023-12-04T04:01:50;3.60;99.90
41904;DHT22;27586;51.124;4.182;2023-12-04T04:04:15;3.60;99.90
41904;DHT22;27586;51.124;4.182;2023-12-04T04:06:41;3.60;99.90
41904;DHT22;27586;51.124;4.182;2023-12-04T04:09:06;3.60;99.90
41904;DHT22;27586;51.124;4.182;2023-12-04T04:11:32;3.60;99.90
41904;DHT22;27586;51.124;4.182;2023-12-04T04:13:58;3.60;99.90
41904;DHT22;27586;51.124;4.182;2023-12-04T04:16:23;3.60;99.90
41904;DHT22;27586;51.124;4.182;2023-12-04T04:18:49;3.60;99.90
41904;DHT22;27586;51.124;4.182;2023-12-04T04:21:15;3.50;99.90
41904;DHT22;27586;51.124;4.182;2023-12-04T04:23:40;3.60;99.90
41904;DHT22;27586;51.124;4.182;2023-12-04T04:26:06;3.60;99.90
41904;DHT22;27586;51.124;4.182;2023-12-04T04:28:32;3.60;99.90
41904;DHT22;27586;51.124;4.182;2023-12-04T04:30:58;3.50;99.90
41904;DHT22;27586;51.124;4.182;2023-12-04T04:33:23;3.50;99.90
41904;DHT22;27586;51.124;4.182;2023-12-04T04:35:49;3.40;99.90
41904;DHT22;27586;51.124;4.182;2023-12-04T04:38:15;3.50;99.90
41904;DHT22;27586;51.124;4.182;2023-12-04T04:40:40;3.60;99.90
41904;DHT22;27586;51.124;4.182;2023-12-04T04:43:10;3.60;99.90
41904;DHT22;27586;51.124;4.182;2023-12-04T04:45:35;3.70;99.90
41904;DHT22;27586;51.124;4.182;2023-12-04T04:48:01;3.60;99.90
41904;DHT22;27586;51.124;4.182;2023-12-04T04:50:27;3.60;99.90
41904;DHT22;27586;51.124;4.182;2023-12-04T04:52:52;3.70;99.90
41904;DHT22;27586;51.124;4.182;2023-12-04T04:55:18;3.70;99.90
41904;DHT22;27586;51.124;4.182;2023-12-04T04:57:44;3.70;99.90
41904;DHT22;27586;51.124;4.182;2023-12-04T05:00:10;3.70;99.90
41904;DHT22;27586;51.124;4.182;2023-12-04T05:02:36;3.70;99.90
41904;DHT22;27586;51.124;4.182;2023-12-04T05:05:03;3.60;99.90
41904;DHT22;27586;51.124;4.182;2023-12-04T05:07:29;3.60;99.90
41904;DHT22;27586;51.124;4.182;2023-12-04T05:09:54;3.60;99.90
41904;DHT22;27586;51.124;4.182;2023-12-04T05:12:20;3.60;99.90
41904;DHT22;27586;51.124;4.182;2023-12-04T05:14:46;3.60;99.90
41904;DHT22;27586;51.124;4.182;2023-12-04T05:17:11;3.60;99.90
41904;DHT22;27586;51.124;4.182;2023-12-04T05:19:37;3.60;99.90
41904;DHT22;27586;51.124;4.182;2023-12-04T05:22:03;3.70;99.90
41904;DHT22;27586;51.124;4.182;2023-12-04T05:24:28;3.70;99.90
41904;DHT22;27586;51.124;4.182;2023-12-04T05:26:54;3.80;99.90
41904;DHT22;27586;51.124;4.182;2023-12-04T05:29:20;3.90;99.90
41904;DHT22;27586;51.124;4.182;2023-12-04T05:31:46;3.80;99.90
41904;DHT22;27586;51.124;4.182;2023-12-04T05:34:12;3.80;99.90
41904;DHT22;27586;51.124;4.182;2023-12-04T05:36:38;3.80;99.90
41904;DHT22;27586;51.124;4.182;2023-12-04T05:39:03;3.90;99.90
41904;DHT22;27586;51.124;4.182;2023-12-04T05:41:30;3.90;99.90
41904;DHT22;27586;51.124;4.182;2023-12-04T05:43:55;3.90;99.90
41904;DHT22;27586;51.124;4.182;2023-12-04T05:46:21;3.90;99.90
41904;DHT22;27586;51.124;4.182;2023-12-04T05:48:47;3.90;99.90
41904;DHT22;27586;51.124;4.182;2023-12-04T05:51:13;3.90;99.90
41904;DHT22;27586;51.124;4.182;2023-12-04T05:53:40;3.90;99.90
41904;DHT22;27586;51.124;4.182;2023-12-04T05:56:06;3.80;99.90
41904;DHT22;27586;51.124;4.182;2023-12-04T05:58:34;3.80;99.90
41904;DHT22;27586;51.124;4.182;2023-12-04T06:01:00;3.90;99.90
41904;DHT22;27586;51.124;4.182;2023-12-04T06:03:25;3.80;99.90
41904;DHT22;27586;51.124;4.182;2023-12-04T06:05:51;3.90;99.90
41904;DHT22;27586;51.124;4.182;2023-12-04T06:08:18;3.80;99.90
41904;DHT22;27586;51.124;4.182;2023-12-04T06:10:44;3.80;99.90
41904;DHT22;27586;51.124;4.182;2023-12-04T06:13:10;3.70;99.90
41904;DHT22;27586;51.124;4.182;2023-12-04T06:15:36;3.80;99.90
41904;DHT22;27586;51.124;4.182;2023-12-04T06:18:02;3.90;99.90
41904;DHT22;27586;51.124;4.182;2023-12-04T06:20:27;3.80;99.90
41904;DHT22;27586;51.124;4.182;2023-12-04T06:22:53;3.80;99.90
41904;DHT22;27586;51.124;4.182;2023-12-04T06:25:19;3.90;99.90
41904;DHT22;27586;51.124;4.182;2023-12-04T06:27:45;3.90;99.90
41904;DHT22;27586;51.124;4.182;2023-12-04T06:30:11;3.80;99.90
41904;DHT22;27586;51.124;4.182;2023-12-04T06:32:37;3.80;99.90
41904;DHT22;27586;51.124;4.182;2023-12-04T06:35:03;3.80;99.90
41904;DHT22;27586;51.124;4.182;2023-12-04T06:37:29;3.80;99.90
41904;DHT22;27586;51.124;4.182;2023-12-04T06:40:01;3.80;99.90
41904;DHT22;27586;51.124;4.182;2023-12-04T06:42:28;3.80;99.90
41904;DHT22;27586;51.124;4.182;2023-12-04T06:44:54;3.80;99.90
41904;DHT22;27586;51.124;4.182;2023-12-04T06:47:22;3.80;99.90
41904;DHT22;27586;51.124;4.182;2023-12-04T06:49:48;3.80;99.90
41904;DHT22;27586;51.124;4.182;2023-12-04T06:52:14;3.80;99.90
41904;DHT22;27586;51.124;4.182;2023-12-04T06:54:39;3.90;99.90
41904;DHT22;27586;51.124;4.182;2023-12-04T06:57:05;3.80;99.90
41904;DHT22;27586;51.124;4.182;2023-12-04T06:59:31;3.80;99.90
41904;DHT22;27586;51.124;4.182;2023-12-04T07:01:57;3.80;99.90
41904;DHT22;27586;51.124;4.182;2023-12-04T07:04:23;3.90;99.90
41904;DHT22;27586;51.124;4.182;2023-12-04T07:06:49;3.90;99.90
41904;DHT22;27586;51.124;4.182;2023-12-04T07:09:15;4.00;99.90
41904;DHT22;27586;51.124;4.182;2023-12-04T07:11:42;4.10;99.90
41904;DHT22;27586;51.124;4.182;2023-12-04T07:14:09;4.10;99.90
41904;DHT22;27586;51.124;4.182;2023-12-04T07:16:41;4.20;99.90
41904;DHT22;27586;51.124;4.182;2023-12-04T07:19:08;4.20;99.90
41904;DHT22;27586;51.124;4.182;2023-12-04T07:21:35;4.20;99.90
41904;DHT22;27586;51.124;4.182;2023-12-04T07:24:01;4.40;99.90
41904;DHT22;27586;51.124;4.182;2023-12-04T07:26:26;4.30;99.90
41904;DHT22;27586;51.124;4.182;2023-12-04T07:28:52;4.20;99.90
41904;DHT22;27586;51.124;4.182;2023-12-04T07:31:17;4.20;99.90
41904;DHT22;27586;51.124;4.182;2023-12-04T07:33:43;4.20;99.90
41904;DHT22;27586;51.124;4.182;2023-12-04T07:36:09;4.40;99.90
41904;DHT22;27586;51.124;4.182;2023-12-04T07:38:34;4.40;99.90
41904;DHT22;27586;51.124;4.182;2023-12-04T07:41:00;4.40;99.90
41904;DHT22;27586;51.124;4.182;2023-12-04T07:43:25;4.40;99.90
41904;DHT22;27586;51.124;4.182;2023-12-04T07:45:54;4.40;99.90
41904;DHT22;27586;51.124;4.182;2023-12-04T07:48:20;4.40;99.90
41904;DHT22;27586;51.124;4.182;2023-12-04T07:50:46;4.30;99.90
41904;DHT22;27586;51.124;4.182;2023-12-04T07:53:11;4.40;99.90
41904;DHT22;27586;51.124;4.182;2023-12-04T07:55:38;4.50;99.90
41904;DHT22;27586;51.124;4.182;2023-12-04T07:58:04;4.50;99.90
41904;DHT22;27586;51.124;4.182;2023-12-04T08:00:29;4.50;99.90
41904;DHT22;27586;51.124;4.182;2023-12-04T08:02:55;4.50;99.90
41904;DHT22;27586;51.124;4.182;2023-12-04T08:05:21;4.50;99.90
41904;DHT22;27586;51.124;4.182;2023-12-04T08:07:47;4.50;99.90
41904;DHT22;27586;51.124;4.182;2023-12-04T08:10:13;4.50;99.90
41904;DHT22;27586;51.124;4.182;2023-12-04T08:12:39;4.50;99.90
41904;DHT22;27586;51.124;4.182;2023-12-04T08:15:05;4.50;99.90
41904;DHT22;27586;51.124;4.182;2023-12-04T08:17:31;4.50;99.90
41904;DHT22;27586;51.124;4.182;2023-12-04T08:19:57;4.70;99.90
41904;DHT22;27586;51.124;4.182;2023-12-04T08:22:23;4.70;99.90
41904;DHT22;27586;51.124;4.182;2023-12-04T08:24:48;4.70;99.90
41904;DHT22;27586;51.124;4.182;2023-12-04T08:27:14;4.70;99.90
41904;DHT22;27586;51.124;4.182;2023-12-04T08:29:40;4.70;99.90
41904;DHT22;27586;51.124;4.182;2023-12-04T08:32:06;4.80;99.90
41904;DHT22;27586;51.124;4.182;2023-12-04T08:34:32;4.70;99.90
41904;DHT22;27586;51.124;4.182;2023-12-04T08:36:57;4.80;99.90
41904;DHT22;27586;51.124;4.182;2023-12-04T08:39:23;4.80;99.90
41904;DHT22;27586;51.124;4.182;2023-12-04T08:41:49;4.70;99.90
41904;DHT22;27586;51.124;4.182;2023-12-04T08:44:15;4.80;99.90
41904;DHT22;27586;51.124;4.182;2023-12-04T08:46:42;4.80;99.90
41904;DHT22;27586;51.124;4.182;2023-12-04T08:49:09;4.90;99.90
41904;DHT22;27586;51.124;4.182;2023-12-04T08:51:34;4.80;99.90
41904;DHT22;27586;51.124;4.182;2023-12-04T08:54:00;4.80;99.90
41904;DHT22;27586;51.124;4.182;2023-12-04T08:56:26;4.80;99.90
41904;DHT22;27586;51.124;4.182;2023-12-04T08:58:51;4.90;99.90
41904;DHT22;27586;51.124;4.182;2023-12-04T09:01:17;4.90;99.90
41904;DHT22;27586;51.124;4.182;2023-12-04T09:03:42;4.90;99.90
41904;DHT22;27586;51.124;4.182;2023-12-04T09:06:08;4.90;99.90
41904;DHT22;27586;51.124;4.182;2023-12-04T09:08:34;4.90;99.90
41904;DHT22;27586;51.124;4.182;2023-12-04T09:11:00;5.00;99.90
41904;DHT22;27586;51.124;4.182;2023-12-04T09:13:26;4.80;99.90
41904;DHT22;27586;51.124;4.182;2023-12-04T09:15:51;4.80;99.90
41904;DHT22;27586;51.124;4.182;2023-12-04T09:18:17;4.80;99.90
41904;DHT22;27586;51.124;4.182;2023-12-04T09:20:43;4.90;99.90
41904;DHT22;27586;51.124;4.182;2023-12-04T09:23:09;5.00;99.90
41904;DHT22;27586;51.124;4.182;2023-12-04T09:25:35;4.80;99.90
41904;DHT22;27586;51.124;4.182;2023-12-04T09:28:01;4.90;99.90
41904;DHT22;27586;51.124;4.182;2023-12-04T09:30:26;4.90;99.90
41904;DHT22;27586;51.124;4.182;2023-12-04T09:32:52;4.90;99.90
41904;DHT22;27586;51.124;4.182;2023-12-04T09:35:18;5.10;99.90
41904;DHT22;27586;51.124;4.182;2023-12-04T09:37:44;5.10;99.90
41904;DHT22;27586;51.124;4.182;2023-12-04T09:40:11;5.10;99.90
41904;DHT22;27586;51.124;4.182;2023-12-04T09:42:38;5.10;99.90
41904;DHT22;27586;51.124;4.182;2023-12-04T09:45:05;5.10;99.90
41904;DHT22;27586;51.124;4.182;2023-12-04T09:47:31;5.20;99.90
41904;DHT22;27586;51.124;4.182;2023-12-04T09:49:58;5.20;99.90
41904;DHT22;27586;51.124;4.182;2023-12-04T09:52:24;5.30;99.90
41904;DHT22;27586;51.124;4.182;2023-12-04T09:54:52;5.20;99.90
41904;DHT22;27586;51.124;4.182;2023-12-04T09:57:18;5.20;99.90
41904;DHT22;27586;51.124;4.182;2023-12-04T09:59:44;5.20;99.90
41904;DHT22;27586;51.124;4.182;2023-12-04T10:02:11;5.30;99.90
41904;DHT22;27586;51.124;4.182;2023-12-04T10:04:37;5.20;99.90
41904;DHT22;27586;51.124;4.182;2023-12-04T10:07:03;5.30;99.90
41904;DHT22;27586;51.124;4.182;2023-12-04T10:09:29;5.20;99.90
41904;DHT22;27586;51.124;4.182;2023-12-04T10:11:58;5.20;99.90
41904;DHT22;27586;51.124;4.182;2023-12-04T10:14:25;5.20;99.90
41904;DHT22;27586;51.124;4.182;2023-12-04T10:16:51;5.10;99.90
41904;DHT22;27586;51.124;4.182;2023-12-04T10:19:26;5.20;99.90
41904;DHT22;27586;51.124;4.182;2023-12-04T10:21:53;5.00;99.90
41904;DHT22;27586;51.124;4.182;2023-12-04T10:24:34;5.00;99.90
41904;DHT22;27586;51.124;4.182;2023-12-04T10:27:05;5.00;99.90
41904;DHT22;27586;51.124;4.182;2023-12-04T10:29:46;4.90;99.90
41904;DHT22;27586;51.124;4.182;2023-12-04T10:32:12;4.90;99.90
41904;DHT22;27586;51.124;4.182;2023-12-04T10:34:38;5.00;99.90
41904;DHT22;27586;51.124;4.182;2023-12-04T10:37:05;4.90;99.90
41904;DHT22;27586;51.124;4.182;2023-12-04T10:39:32;4.90;99.90
41904;DHT22;27586;51.124;4.182;2023-12-04T10:42:10;5.00;99.90
41904;DHT22;27586;51.124;4.182;2023-12-04T10:44:35;5.00;99.90
41904;DHT22;27586;51.124;4.182;2023-12-04T10:47:01;5.00;99.90
41904;DHT22;27586;51.124;4.182;2023-12-04T10:49:27;4.90;99.90
41904;DHT22;27586;51.124;4.182;2023-12-04T10:51:57;4.90;99.90
41904;DHT22;27586;51.124;4.182;2023-12-04T10:54:25;4.90;99.90
41904;DHT22;27586;51.124;4.182;2023-12-04T10:56:52;4.80;99.90
41904;DHT22;27586;51.124;4.182;2023-12-04T10:59:23;4.90;99.90
41904;DHT22;27586;51.124;4.182;2023-12-04T11:01:51;4.80;99.90
41904;DHT22;27586;51.124;4.182;2023-12-04T11:04:21;4.70;99.90
41904;DHT22;27586;51.124;4.182;2023-12-04T11:06:52;4.70;99.90
41904;DHT22;27586;51.124;4.182;2023-12-04T11:09:18;4.70;99.90
41904;DHT22;27586;51.124;4.182;2023-12-04T11:11:50;4.70;99.90
41904;DHT22;27586;51.124;4.182;2023-12-04T11:14:21;4.60;99.90
41904;DHT22;27586;51.124;4.182;2023-12-04T11:16:49;4.60;99.90
41904;DHT22;27586;51.124;4.182;2023-12-04T11:19:52;4.80;99.90
41904;DHT22;27586;51.124;4.182;2023-12-04T11:22:19;4.70;99.90
41904;DHT22;27586;51.124;4.182;2023-12-04T11:24:47;4.70;99.90
41904;DHT22;27586;51.124;4.182;2023-12-04T11:27:18;4.70;99.90
41904;DHT22;27586;51.124;4.182;2023-12-04T11:29:45;4.70;99.90
41904;DHT22;27586;51.124;4.182;2023-12-04T11:32:15;4.70;99.90
41904;DHT22;27586;51.124;4.182;2023-12-04T11:34:54;4.70;99.90
41904;DHT22;27586;51.124;4.182;2023-12-04T11:37:21;4.60;99.90
41904;DHT22;27586;51.124;4.182;2023-12-04T11:39:50;4.60;99.90
41904;DHT22;27586;51.124;4.182;2023-12-04T11:42:22;4.70;99.90
41904;DHT22;27586;51.124;4.182;2023-12-04T11:44:48;4.70;99.90
41904;DHT22;27586;51.124;4.182;2023-12-04T11:47:15;4.50;99.90
41904;DHT22;27586;51.124;4.182;2023-12-04T11:49:41;4.60;99.90
41904;DHT22;27586;51.124;4.182;2023-12-04T11:52:07;4.50;99.90
41904;DHT22;27586;51.124;4.182;2023-12-04T11:55:03;4.60;99.90
41904;DHT22;27586;51.124;4.182;2023-12-04T11:57:38;4.60;99.90
41904;DHT22;27586;51.124;4.182;2023-12-04T12:00:12;4.60;99.90
41904;DHT22;27586;51.124;4.182;2023-12-04T12:02:40;4.60;99.90
41904;DHT22;27586;51.124;4.182;2023-12-04T12:05:06;4.70;99.90
41904;DHT22;27586;51.124;4.182;2023-12-04T12:07:33;4.60;99.90
41904;DHT22;27586;51.124;4.182;2023-12-04T12:09:59;4.50;99.90
41904;DHT22;27586;51.124;4.182;2023-12-04T12:12:27;4.60;99.90
41904;DHT22;27586;51.124;4.182;2023-12-04T12:14:53;4.50;99.90
41904;DHT22;27586;51.124;4.182;2023-12-04T12:17:18;4.70;99.90
41904;DHT22;27586;51.124;4.182;2023-12-04T12:19:45;4.70;99.90
41904;DHT22;27586;51.124;4.182;2023-12-04T12:22:11;4.70;99.90
41904;DHT22;27586;51.124;4.182;2023-12-04T12:24:37;4.70;99.90
41904;DHT22;27586;51.124;4.182;2023-12-04T12:27:03;4.70;99.90
41904;DHT22;27586;51.124;4.182;2023-12-04T12:29:29;4.80;99.90
41904;DHT22;27586;51.124;4.182;2023-12-04T12:31:55;4.80;99.90
41904;DHT22;27586;51.124;4.182;2023-12-04T12:34:21;5.00;99.90
41904;DHT22;27586;51.124;4.182;2023-12-04T12:36:46;4.80;99.90
41904;DHT22;27586;51.124;4.182;2023-12-04T12:39:13;4.90;99.90
41904;DHT22;27586;51.124;4.182;2023-12-04T12:41:39;4.80;99.90
41904;DHT22;27586;51.124;4.182;2023-12-04T12:44:05;4.70;99.90
41904;DHT22;27586;51.124;4.182;2023-12-04T12:46:31;4.70;99.90
41904;DHT22;27586;51.124;4.182;2023-12-04T12:48:57;4.70;99.90
41904;DHT22;27586;51.124;4.182;2023-12-04T12:51:23;4.70;99.90
41904;DHT22;27586;51.124;4.182;2023-12-04T12:53:49;4.70;99.90
41904;DHT22;27586;51.124;4.182;2023-12-04T12:56:15;4.70;99.90
41904;DHT22;27586;51.124;4.182;2023-12-04T12:58:41;4.70;99.90
41904;DHT22;27586;51.124;4.182;2023-12-04T13:01:10;4.70;99.90
41904;DHT22;27586;51.124;4.182;2023-12-04T13:03:36;4.80;99.90
41904;DHT22;27586;51.124;4.182;2023-12-04T13:06:03;4.70;99.90
41904;DHT22;27586;51.124;4.182;2023-12-04T13:08:29;4.60;99.90
41904;DHT22;27586;51.124;4.182;2023-12-04T13:10:54;4.60;99.90
41904;DHT22;27586;51.124;4.182;2023-12-04T13:13:20;4.70;99.90
41904;DHT22;27586;51.124;4.182;2023-12-04T13:15:46;4.70;99.90
41904;DHT22;27586;51.124;4.182;2023-12-04T13:18:12;4.70;99.90
41904;DHT22;27586;51.124;4.182;2023-12-04T13:20:37;4.70;99.90
41904;DHT22;27586;51.124;4.182;2023-12-04T13:23:03;4.60;99.90
41904;DHT22;27586;51.124;4.182;2023-12-04T13:25:29;4.70;99.90
41904;DHT22;27586;51.124;4.182;2023-12-04T13:27:54;4.70;99.90
41904;DHT22;27586;51.124;4.182;2023-12-04T13:30:20;4.60;99.90
41904;DHT22;27586;51.124;4.182;2023-12-04T13:32:46;4.60;99.90
41904;DHT22;27586;51.124;4.182;2023-12-04T13:35:12;4.60;99.90
41904;DHT22;27586;51.124;4.182;2023-12-04T13:37:37;4.50;99.90
41904;DHT22;27586;51.124;4.182;2023-12-04T13:40:05;4.50;99.90
41904;DHT22;27586;51.124;4.182;2023-12-04T13:42:38;4.50;99.90
41904;DHT22;27586;51.124;4.182;2023-12-04T13:45:24;4.40;99.90
41904;DHT22;27586;51.124;4.182;2023-12-04T13:47:50;4.60;99.90
41904;DHT22;27586;51.124;4.182;2023-12-04T13:50:16;4.50;99.90
41904;DHT22;27586;51.124;4.182;2023-12-04T13:52:42;4.60;99.90
41904;DHT22;27586;51.124;4.182;2023-12-04T13:55:09;4.60;99.90
41904;DHT22;27586;51.124;4.182;2023-12-04T13:57:59;4.70;99.90
41904;DHT22;27586;51.124;4.182;2023-12-04T14:00:25;4.70;99.90
41904;DHT22;27586;51.124;4.182;2023-12-04T14:02:50;4.60;99.90
41904;DHT22;27586;51.124;4.182;2023-12-04T14:05:25;4.50;99.90
41904;DHT22;27586;51.124;4.182;2023-12-04T14:07:51;4.40;99.90
41904;DHT22;27586;51.124;4.182;2023-12-04T14:10:17;4.50;99.90
41904;DHT22;27586;51.124;4.182;2023-12-04T14:12:42;4.50;99.90
41904;DHT22;27586;51.124;4.182;2023-12-04T14:15:08;4.60;99.90
41904;DHT22;27586;51.124;4.182;2023-12-04T14:17:34;4.50;99.90
41904;DHT22;27586;51.124;4.182;2023-12-04T14:20:00;4.50;99.90
41904;DHT22;27586;51.124;4.182;2023-12-04T14:22:25;4.60;99.90
41904;DHT22;27586;51.124;4.182;2023-12-04T14:24:51;4.50;99.90
41904;DHT22;27586;51.124;4.182;2023-12-04T14:27:17;4.50;99.90
41904;DHT22;27586;51.124;4.182;2023-12-04T14:29:43;4.50;99.90
41904;DHT22;27586;51.124;4.182;2023-12-04T14:32:10;4.50;99.90
41904;DHT22;27586;51.124;4.182;2023-12-04T14:34:35;4.60;99.90
41904;DHT22;27586;51.124;4.182;2023-12-04T14:37:01;4.60;99.90
41904;DHT22;27586;51.124;4.182;2023-12-04T14:39:27;4.70;99.90
41904;DHT22;27586;51.124;4.182;2023-12-04T14:41:52;4.70;99.90
41904;DHT22;27586;51.124;4.182;2023-12-04T14:44:18;4.80;99.90
41904;DHT22;27586;51.124;4.182;2023-12-04T14:46:44;4.70;99.90
41904;DHT22;27586;51.124;4.182;2023-12-04T14:49:11;4.50;99.90
41904;DHT22;27586;51.124;4.182;2023-12-04T14:51:36;4.60;99.90
41904;DHT22;27586;51.124;4.182;2023-12-04T14:54:02;4.60;99.90
41904;DHT22;27586;51.124;4.182;2023-12-04T14:56:47;4.60;99.90
41904;DHT22;27586;51.124;4.182;2023-12-04T14:59:31;4.70;99.90
41904;DHT22;27586;51.124;4.182;2023-12-04T15:02:06;4.50;99.90
41904;DHT22;27586;51.124;4.182;2023-12-04T15:04:41;4.60;99.90
41904;DHT22;27586;51.124;4.182;2023-12-04T15:07:26;4.60;99.90
41904;DHT22;27586;51.124;4.182;2023-12-04T15:10:12;4.70;99.90
41904;DHT22;27586;51.124;4.182;2023-12-04T15:13:09;4.70;99.90
41904;DHT22;27586;51.124;4.182;2023-12-04T15:15:55;4.80;99.90
41904;DHT22;27586;51.124;4.182;2023-12-04T15:18:39;4.70;99.90
41904;DHT22;27586;51.124;4.182;2023-12-04T15:21:06;4.70;99.90
41904;DHT22;27586;51.124;4.182;2023-12-04T15:23:32;4.60;99.90
41904;DHT22;27586;51.124;4.182;2023-12-04T15:25:58;4.60;99.90
41904;DHT22;27586;51.124;4.182;2023-12-04T15:28:24;4.50;99.90
41904;DHT22;27586;51.124;4.182;2023-12-04T15:30:50;4.50;99.90
41904;DHT22;27586;51.124;4.182;2023-12-04T15:33:15;4.40;99.90
41904;DHT22;27586;51.124;4.182;2023-12-04T15:35:41;4.40;99.90
41904;DHT22;27586;51.124;4.182;2023-12-04T15:38:08;4.60;99.90
41904;DHT22;27586;51.124;4.182;2023-12-04T15:40:34;4.50;99.90
41904;DHT22;27586;51.124;4.182;2023-12-04T15:43:01;4.60;99.90